sensor_id;sensor_type;location;lat;lon;timestamp;P1;durP1;ratioP1;P2;durP2;ratioP2
76536;SDS011;65381;51.254;15.592;2022-12-18T00:01:24;0.77;;;0.52;;
76536;SDS011;65381;51.254;15.592;2022-12-18T00:03:54;3.03;;;2.83;;
76536;SDS011;65381;51.254;15.592;2022-12-18T00:06:23;1.85;;;1.17;;
76536;SDS011;65381;51.254;15.592;2022-12-18T00:08:52;5.30;;;4.93;;
76536;SDS011;65381;51.254;15.592;2022-12-18T00:11:21;0.10;;;0.10;;
76536;SDS011;65381;51.254;15.592;2022-12-18T00:13:50;0.00;;;0.00;;
76536;SDS011;65381;51.254;15.592;2022-12-18T00:16:20;4.60;;;2.15;;
76536;SDS011;65381;51.254;15.592;2022-12-18T00:18:51;3.40;;;1.30;;
76536;SDS011;65381;51.254;15.592;2022-12-18T00:21:21;0.00;;;0.00;;
76536;SDS011;65381;51.254;15.592;2022-12-18T00:23:49;0.00;;;0.00;;
76536;SDS011;65381;51.254;15.592;2022-12-18T00:26:19;0.00;;;0.00;;
76536;SDS011;65381;51.254;15.592;2022-12-18T00:28:58;0.30;;;0.30;;
76536;SDS011;65381;51.254;15.592;2022-12-18T00:31:27;0.60;;;0.60;;
76536;SDS011;65381;51.254;15.592;2022-12-18T00:33:55;0.30;;;0.30;;
76536;SDS011;65381;51.254;15.592;2022-12-18T00:36:25;0.38;;;0.38;;
76536;SDS011;65381;51.254;15.592;2022-12-18T00:38:55;1.00;;;1.00;;
76536;SDS011;65381;51.254;15.592;2022-12-18T00:41:25;0.30;;;0.30;;
76536;SDS011;65381;51.254;15.592;2022-12-18T00:44:07;1.10;;;1.10;;
76536;SDS011;65381;51.254;15.592;2022-12-18T00:46:36;3.53;;;3.22;;
76536;SDS011;65381;51.254;15.592;2022-12-18T00:49:04;0.00;;;0.00;;
76536;SDS011;65381;51.254;15.592;2022-12-18T00:51:35;0.00;;;0.00;;
76536;SDS011;65381;51.254;15.592;2022-12-18T00:54:02;3.15;;;1.42;;
76536;SDS011;65381;51.254;15.592;2022-12-18T00:56:30;6.13;;;1.90;;
76536;SDS011;65381;51.254;15.592;2022-12-18T00:58:58;0.68;;;0.68;;
76536;SDS011;65381;51.254;15.592;2022-12-18T01:01:26;0.00;;;0.00;;
76536;SDS011;65381;51.254;15.592;2022-12-18T01:03:54;2.63;;;2.53;;
76536;SDS011;65381;51.254;15.592;2022-12-18T01:06:21;0.10;;;0.10;;
76536;SDS011;65381;51.254;15.592;2022-12-18T01:08:48;0.00;;;0.00;;
76536;SDS011;65381;51.254;15.592;2022-12-18T01:11:17;0.20;;;0.20;;
76536;SDS011;65381;51.254;15.592;2022-12-18T01:13:46;0.10;;;0.10;;
76536;SDS011;65381;51.254;15.592;2022-12-18T01:16:15;11.00;;;3.00;;
76536;SDS011;65381;51.254;15.592;2022-12-18T01:18:44;0.63;;;0.63;;
76536;SDS011;65381;51.254;15.592;2022-12-18T01:21:14;0.00;;;0.00;;
76536;SDS011;65381;51.254;15.592;2022-12-18T01:23:43;8.73;;;3.55;;
76536;SDS011;65381;51.254;15.592;2022-12-18T01:26:13;1.90;;;1.75;;
76536;SDS011;65381;51.254;15.592;2022-12-18T01:28:43;0.00;;;0.00;;
76536;SDS011;65381;51.254;15.592;2022-12-18T01:31:21;3.42;;;1.75;;
76536;SDS011;65381;51.254;15.592;2022-12-18T01:33:51;0.00;;;0.00;;
76536;SDS011;65381;51.254;15.592;2022-12-18T01:36:21;0.00;;;0.00;;
76536;SDS011;65381;51.254;15.592;2022-12-18T01:38:51;0.00;;;0.00;;
76536;SDS011;65381;51.254;15.592;2022-12-18T01:41:21;0.00;;;0.00;;
76536;SDS011;65381;51.254;15.592;2022-12-18T01:46:21;0.00;;;0.00;;
76536;SDS011;65381;51.254;15.592;2022-12-18T01:48:52;0.00;;;0.00;;
76536;SDS011;65381;51.254;15.592;2022-12-18T01:51:27;0.03;;;0.03;;
76536;SDS011;65381;51.254;15.592;2022-12-18T01:53:57;0.00;;;0.00;;
76536;SDS011;65381;51.254;15.592;2022-12-18T01:56:26;0.00;;;0.00;;
76536;SDS011;65381;51.254;15.592;2022-12-18T01:58:54;0.00;;;0.00;;
76536;SDS011;65381;51.254;15.592;2022-12-18T02:01:28;0.00;;;0.00;;
76536;SDS011;65381;51.254;15.592;2022-12-18T02:09:40;0.00;;;0.00;;
76536;SDS011;65381;51.254;15.592;2022-12-18T02:12:24;0.00;;;0.00;;
76536;SDS011;65381;51.254;15.592;2022-12-18T02:15:07;0.00;;;0.00;;
76536;SDS011;65381;51.254;15.592;2022-12-18T02:20:28;0.17;;;0.17;;
76536;SDS011;65381;51.254;15.592;2022-12-18T02:28:33;0.73;;;0.63;;
76536;SDS011;65381;51.254;15.592;2022-12-18T02:31:06;3.17;;;2.17;;
76536;SDS011;65381;51.254;15.592;2022-12-18T02:33:39;5.22;;;2.70;;
76536;SDS011;65381;51.254;15.592;2022-12-18T02:36:08;1.08;;;1.08;;
76536;SDS011;65381;51.254;15.592;2022-12-18T02:38:39;6.32;;;2.38;;
76536;SDS011;65381;51.254;15.592;2022-12-18T02:41:11;7.68;;;1.88;;
76536;SDS011;65381;51.254;15.592;2022-12-18T02:44:07;1.67;;;1.42;;
76536;SDS011;65381;51.254;15.592;2022-12-18T02:46:35;1.35;;;1.25;;
76536;SDS011;65381;51.254;15.592;2022-12-18T02:54:56;1.48;;;1.38;;
76536;SDS011;65381;51.254;15.592;2022-12-18T03:00:23;0.00;;;0.00;;
76536;SDS011;65381;51.254;15.592;2022-12-18T03:05:50;0.00;;;0.00;;
76536;SDS011;65381;51.254;15.592;2022-12-18T03:08:26;0.00;;;0.00;;
76536;SDS011;65381;51.254;15.592;2022-12-18T03:10:59;0.00;;;0.00;;
76536;SDS011;65381;51.254;15.592;2022-12-18T03:16:10;0.03;;;0.03;;
76536;SDS011;65381;51.254;15.592;2022-12-18T03:21:38;0.00;;;0.00;;
76536;SDS011;65381;51.254;15.592;2022-12-18T03:24:13;0.00;;;0.00;;
76536;SDS011;65381;51.254;15.592;2022-12-18T03:26:46;0.10;;;0.10;;
76536;SDS011;65381;51.254;15.592;2022-12-18T03:29:20;0.10;;;0.10;;
76536;SDS011;65381;51.254;15.592;2022-12-18T03:31:53;0.10;;;0.10;;
76536;SDS011;65381;51.254;15.592;2022-12-18T03:34:27;0.10;;;0.10;;
76536;SDS011;65381;51.254;15.592;2022-12-18T03:37:03;0.00;;;0.00;;
76536;SDS011;65381;51.254;15.592;2022-12-18T03:39:33;2.35;;;2.15;;
76536;SDS011;65381;51.254;15.592;2022-12-18T03:42:05;1.23;;;1.23;;
76536;SDS011;65381;51.254;15.592;2022-12-18T03:50:18;0.00;;;0.00;;
76536;SDS011;65381;51.254;15.592;2022-12-18T03:53:00;0.00;;;0.00;;
76536;SDS011;65381;51.254;15.592;2022-12-18T03:55:38;0.00;;;0.00;;
76536;SDS011;65381;51.254;15.592;2022-12-18T03:58:07;0.10;;;0.10;;
76536;SDS011;65381;51.254;15.592;2022-12-18T04:00:49;0.00;;;0.00;;
76536;SDS011;65381;51.254;15.592;2022-12-18T04:03:20;0.00;;;0.00;;
76536;SDS011;65381;51.254;15.592;2022-12-18T04:05:52;0.20;;;0.20;;
76536;SDS011;65381;51.254;15.592;2022-12-18T04:08:23;0.10;;;0.10;;
76536;SDS011;65381;51.254;15.592;2022-12-18T04:11:00;0.00;;;0.00;;
76536;SDS011;65381;51.254;15.592;2022-12-18T04:13:32;0.00;;;0.00;;
76536;SDS011;65381;51.254;15.592;2022-12-18T04:16:09;0.00;;;0.00;;
76536;SDS011;65381;51.254;15.592;2022-12-18T04:18:40;0.05;;;0.05;;
76536;SDS011;65381;51.254;15.592;2022-12-18T04:21:09;0.00;;;0.00;;
76536;SDS011;65381;51.254;15.592;2022-12-18T04:23:37;0.00;;;0.00;;
76536;SDS011;65381;51.254;15.592;2022-12-18T04:26:06;0.10;;;0.10;;
76536;SDS011;65381;51.254;15.592;2022-12-18T04:28:48;0.08;;;0.08;;
76536;SDS011;65381;51.254;15.592;2022-12-18T04:31:15;0.10;;;0.10;;
76536;SDS011;65381;51.254;15.592;2022-12-18T04:33:43;0.03;;;0.03;;
76536;SDS011;65381;51.254;15.592;2022-12-18T04:36:12;0.00;;;0.00;;
76536;SDS011;65381;51.254;15.592;2022-12-18T04:38:40;0.00;;;0.00;;
76536;SDS011;65381;51.254;15.592;2022-12-18T04:41:12;0.10;;;0.10;;
76536;SDS011;65381;51.254;15.592;2022-12-18T04:43:41;0.75;;;0.75;;
76536;SDS011;65381;51.254;15.592;2022-12-18T04:46:09;0.10;;;0.10;;
76536;SDS011;65381;51.254;15.592;2022-12-18T04:48:38;1.10;;;1.00;;
76536;SDS011;65381;51.254;15.592;2022-12-18T04:51:06;0.45;;;0.45;;
76536;SDS011;65381;51.254;15.592;2022-12-18T04:53:34;0.70;;;0.70;;
76536;SDS011;65381;51.254;15.592;2022-12-18T04:56:03;0.00;;;0.00;;
76536;SDS011;65381;51.254;15.592;2022-12-18T04:58:31;0.10;;;0.10;;
76536;SDS011;65381;51.254;15.592;2022-12-18T05:00:58;0.10;;;0.10;;
76536;SDS011;65381;51.254;15.592;2022-12-18T05:03:26;0.60;;;0.60;;
76536;SDS011;65381;51.254;15.592;2022-12-18T05:05:54;0.00;;;0.00;;
76536;SDS011;65381;51.254;15.592;2022-12-18T05:08:22;0.00;;;0.00;;
76536;SDS011;65381;51.254;15.592;2022-12-18T05:10:50;0.00;;;0.00;;
76536;SDS011;65381;51.254;15.592;2022-12-18T05:13:27;0.00;;;0.00;;
76536;SDS011;65381;51.254;15.592;2022-12-18T05:15:55;0.10;;;0.10;;
76536;SDS011;65381;51.254;15.592;2022-12-18T05:18:23;0.00;;;0.00;;
76536;SDS011;65381;51.254;15.592;2022-12-18T05:20:52;0.00;;;0.00;;
76536;SDS011;65381;51.254;15.592;2022-12-18T05:23:21;0.00;;;0.00;;
76536;SDS011;65381;51.254;15.592;2022-12-18T05:25:53;0.00;;;0.00;;
76536;SDS011;65381;51.254;15.592;2022-12-18T05:28:22;0.00;;;0.00;;
76536;SDS011;65381;51.254;15.592;2022-12-18T05:30:51;0.00;;;0.00;;
76536;SDS011;65381;51.254;15.592;2022-12-18T05:33:21;0.17;;;0.17;;
76536;SDS011;65381;51.254;15.592;2022-12-18T05:35:50;0.00;;;0.00;;
76536;SDS011;65381;51.254;15.592;2022-12-18T05:38:20;0.00;;;0.00;;
76536;SDS011;65381;51.254;15.592;2022-12-18T05:40:49;4.97;;;2.08;;
76536;SDS011;65381;51.254;15.592;2022-12-18T05:43:18;0.00;;;0.00;;
76536;SDS011;65381;51.254;15.592;2022-12-18T05:45:48;0.10;;;0.10;;
76536;SDS011;65381;51.254;15.592;2022-12-18T05:48:17;0.20;;;0.20;;
76536;SDS011;65381;51.254;15.592;2022-12-18T05:50:45;0.65;;;0.63;;
76536;SDS011;65381;51.254;15.592;2022-12-18T05:53:15;0.00;;;0.00;;
76536;SDS011;65381;51.254;15.592;2022-12-18T05:55:44;0.00;;;0.00;;
76536;SDS011;65381;51.254;15.592;2022-12-18T05:58:12;0.10;;;0.10;;
76536;SDS011;65381;51.254;15.592;2022-12-18T06:00:42;0.08;;;0.08;;
76536;SDS011;65381;51.254;15.592;2022-12-18T06:03:11;0.00;;;0.00;;
76536;SDS011;65381;51.254;15.592;2022-12-18T06:05:43;0.00;;;0.00;;
76536;SDS011;65381;51.254;15.592;2022-12-18T06:08:12;0.10;;;0.10;;
76536;SDS011;65381;51.254;15.592;2022-12-18T06:10:40;0.00;;;0.00;;
76536;SDS011;65381;51.254;15.592;2022-12-18T06:13:08;0.30;;;0.30;;
76536;SDS011;65381;51.254;15.592;2022-12-18T06:15:37;1.65;;;0.40;;
76536;SDS011;65381;51.254;15.592;2022-12-18T06:18:05;2.47;;;2.28;;
76536;SDS011;65381;51.254;15.592;2022-12-18T06:20:32;0.10;;;0.10;;
76536;SDS011;65381;51.254;15.592;2022-12-18T06:23:00;0.00;;;0.00;;
76536;SDS011;65381;51.254;15.592;2022-12-18T06:25:28;0.05;;;0.05;;
76536;SDS011;65381;51.254;15.592;2022-12-18T06:27:55;0.10;;;0.10;;
76536;SDS011;65381;51.254;15.592;2022-12-18T06:30:23;0.00;;;0.00;;
76536;SDS011;65381;51.254;15.592;2022-12-18T06:32:51;0.00;;;0.00;;
76536;SDS011;65381;51.254;15.592;2022-12-18T06:35:23;0.00;;;0.00;;
76536;SDS011;65381;51.254;15.592;2022-12-18T06:37:50;0.00;;;0.00;;
76536;SDS011;65381;51.254;15.592;2022-12-18T06:40:19;0.75;;;0.75;;
76536;SDS011;65381;51.254;15.592;2022-12-18T06:42:47;0.05;;;0.05;;
76536;SDS011;65381;51.254;15.592;2022-12-18T06:45:16;0.00;;;0.00;;
76536;SDS011;65381;51.254;15.592;2022-12-18T06:47:44;0.00;;;0.00;;
76536;SDS011;65381;51.254;15.592;2022-12-18T06:50:12;0.00;;;0.00;;
76536;SDS011;65381;51.254;15.592;2022-12-18T06:52:40;0.10;;;0.10;;
76536;SDS011;65381;51.254;15.592;2022-12-18T06:55:08;0.00;;;0.00;;
76536;SDS011;65381;51.254;15.592;2022-12-18T06:57:36;0.00;;;0.00;;
76536;SDS011;65381;51.254;15.592;2022-12-18T07:00:05;0.00;;;0.00;;
76536;SDS011;65381;51.254;15.592;2022-12-18T07:02:34;0.00;;;0.00;;
76536;SDS011;65381;51.254;15.592;2022-12-18T07:05:02;0.00;;;0.00;;
76536;SDS011;65381;51.254;15.592;2022-12-18T07:07:36;0.10;;;0.10;;
76536;SDS011;65381;51.254;15.592;2022-12-18T07:10:04;0.00;;;0.00;;
76536;SDS011;65381;51.254;15.592;2022-12-18T07:12:32;0.43;;;0.43;;
76536;SDS011;65381;51.254;15.592;2022-12-18T07:15:00;0.00;;;0.00;;
76536;SDS011;65381;51.254;15.592;2022-12-18T07:17:28;1.48;;;1.10;;
76536;SDS011;65381;51.254;15.592;2022-12-18T07:19:56;0.10;;;0.10;;
76536;SDS011;65381;51.254;15.592;2022-12-18T07:22:25;0.73;;;0.73;;
76536;SDS011;65381;51.254;15.592;2022-12-18T07:24:53;2.13;;;1.80;;
76536;SDS011;65381;51.254;15.592;2022-12-18T07:27:22;1.35;;;0.50;;
76536;SDS011;65381;51.254;15.592;2022-12-18T07:29:50;0.55;;;0.55;;
76536;SDS011;65381;51.254;15.592;2022-12-18T07:32:18;0.10;;;0.10;;
76536;SDS011;65381;51.254;15.592;2022-12-18T07:34:45;0.63;;;0.47;;
76536;SDS011;65381;51.254;15.592;2022-12-18T07:37:13;0.10;;;0.10;;
76536;SDS011;65381;51.254;15.592;2022-12-18T07:39:40;0.00;;;0.00;;
76536;SDS011;65381;51.254;15.592;2022-12-18T07:42:08;0.00;;;0.00;;
76536;SDS011;65381;51.254;15.592;2022-12-18T07:44:50;0.00;;;0.00;;
76536;SDS011;65381;51.254;15.592;2022-12-18T07:47:18;0.00;;;0.00;;
76536;SDS011;65381;51.254;15.592;2022-12-18T07:49:46;0.10;;;0.10;;
76536;SDS011;65381;51.254;15.592;2022-12-18T07:52:13;0.15;;;0.15;;
76536;SDS011;65381;51.254;15.592;2022-12-18T07:54:41;0.05;;;0.05;;
76536;SDS011;65381;51.254;15.592;2022-12-18T07:57:09;0.00;;;0.00;;
76536;SDS011;65381;51.254;15.592;2022-12-18T07:59:58;2.85;;;2.65;;
76536;SDS011;65381;51.254;15.592;2022-12-18T08:02:25;0.85;;;0.55;;
76536;SDS011;65381;51.254;15.592;2022-12-18T08:04:53;0.00;;;0.00;;
76536;SDS011;65381;51.254;15.592;2022-12-18T08:07:21;0.00;;;0.00;;
76536;SDS011;65381;51.254;15.592;2022-12-18T08:09:49;0.03;;;0.03;;
76536;SDS011;65381;51.254;15.592;2022-12-18T08:12:16;0.00;;;0.00;;
76536;SDS011;65381;51.254;15.592;2022-12-18T08:14:44;0.00;;;0.00;;
76536;SDS011;65381;51.254;15.592;2022-12-18T08:17:11;0.00;;;0.00;;
76536;SDS011;65381;51.254;15.592;2022-12-18T08:19:40;0.00;;;0.00;;
76536;SDS011;65381;51.254;15.592;2022-12-18T08:22:08;0.10;;;0.10;;
76536;SDS011;65381;51.254;15.592;2022-12-18T08:24:36;0.00;;;0.00;;
76536;SDS011;65381;51.254;15.592;2022-12-18T08:27:03;0.00;;;0.00;;
76536;SDS011;65381;51.254;15.592;2022-12-18T08:29:51;0.00;;;0.00;;
76536;SDS011;65381;51.254;15.592;2022-12-18T08:32:18;0.00;;;0.00;;
76536;SDS011;65381;51.254;15.592;2022-12-18T08:34:46;0.00;;;0.00;;
76536;SDS011;65381;51.254;15.592;2022-12-18T08:37:14;0.00;;;0.00;;
76536;SDS011;65381;51.254;15.592;2022-12-18T08:39:42;0.00;;;0.00;;
76536;SDS011;65381;51.254;15.592;2022-12-18T08:42:09;0.17;;;0.17;;
76536;SDS011;65381;51.254;15.592;2022-12-18T08:44:51;0.00;;;0.00;;
76536;SDS011;65381;51.254;15.592;2022-12-18T08:47:19;3.00;;;1.60;;
76536;SDS011;65381;51.254;15.592;2022-12-18T08:49:47;0.10;;;0.10;;
76536;SDS011;65381;51.254;15.592;2022-12-18T08:52:15;0.38;;;0.38;;
76536;SDS011;65381;51.254;15.592;2022-12-18T08:54:43;0.10;;;0.10;;
76536;SDS011;65381;51.254;15.592;2022-12-18T08:57:10;0.10;;;0.10;;
76536;SDS011;65381;51.254;15.592;2022-12-18T08:59:38;0.00;;;0.00;;
76536;SDS011;65381;51.254;15.592;2022-12-18T09:02:05;0.10;;;0.10;;
76536;SDS011;65381;51.254;15.592;2022-12-18T09:04:38;0.00;;;0.00;;
76536;SDS011;65381;51.254;15.592;2022-12-18T09:07:06;0.40;;;0.40;;
76536;SDS011;65381;51.254;15.592;2022-12-18T09:09:34;2.40;;;1.17;;
76536;SDS011;65381;51.254;15.592;2022-12-18T09:12:02;0.00;;;0.00;;
76536;SDS011;65381;51.254;15.592;2022-12-18T09:14:31;0.00;;;0.00;;
76536;SDS011;65381;51.254;15.592;2022-12-18T09:16:59;0.00;;;0.00;;
76536;SDS011;65381;51.254;15.592;2022-12-18T09:19:26;0.10;;;0.10;;
76536;SDS011;65381;51.254;15.592;2022-12-18T09:21:54;0.00;;;0.00;;
76536;SDS011;65381;51.254;15.592;2022-12-18T09:24:21;0.20;;;0.20;;
76536;SDS011;65381;51.254;15.592;2022-12-18T09:26:52;0.10;;;0.10;;
76536;SDS011;65381;51.254;15.592;2022-12-18T09:29:24;0.00;;;0.00;;
76536;SDS011;65381;51.254;15.592;2022-12-18T09:31:52;0.63;;;0.63;;
76536;SDS011;65381;51.254;15.592;2022-12-18T09:34:20;0.10;;;0.10;;
76536;SDS011;65381;51.254;15.592;2022-12-18T09:36:49;0.30;;;0.30;;
76536;SDS011;65381;51.254;15.592;2022-12-18T09:39:17;0.03;;;0.03;;
76536;SDS011;65381;51.254;15.592;2022-12-18T09:41:50;0.20;;;0.20;;
76536;SDS011;65381;51.254;15.592;2022-12-18T09:49:33;0.03;;;0.03;;
76536;SDS011;65381;51.254;15.592;2022-12-18T09:55:05;0.85;;;0.50;;
76536;SDS011;65381;51.254;15.592;2022-12-18T09:57:42;3.15;;;1.90;;
76536;SDS011;65381;51.254;15.592;2022-12-18T10:00:20;0.20;;;0.20;;
76536;SDS011;65381;51.254;15.592;2022-12-18T10:02:50;0.47;;;0.47;;
76536;SDS011;65381;51.254;15.592;2022-12-18T10:05:21;0.10;;;0.10;;
76536;SDS011;65381;51.254;15.592;2022-12-18T10:10:48;2.08;;;1.98;;
76536;SDS011;65381;51.254;15.592;2022-12-18T10:21:18;0.40;;;0.40;;
76536;SDS011;65381;51.254;15.592;2022-12-18T10:24:02;2.05;;;1.77;;
76536;SDS011;65381;51.254;15.592;2022-12-18T10:26:48;1.55;;;1.45;;
76536;SDS011;65381;51.254;15.592;2022-12-18T10:29:16;0.10;;;0.10;;
76536;SDS011;65381;51.254;15.592;2022-12-18T10:31:46;0.10;;;0.10;;
76536;SDS011;65381;51.254;15.592;2022-12-18T10:34:14;0.25;;;0.25;;
76536;SDS011;65381;51.254;15.592;2022-12-18T10:36:42;0.00;;;0.00;;
76536;SDS011;65381;51.254;15.592;2022-12-18T10:41:49;0.20;;;0.20;;
76536;SDS011;65381;51.254;15.592;2022-12-18T10:44:22;1.63;;;1.58;;
76536;SDS011;65381;51.254;15.592;2022-12-18T10:46:55;1.10;;;1.10;;
76536;SDS011;65381;51.254;15.592;2022-12-18T10:49:38;0.60;;;0.60;;
76536;SDS011;65381;51.254;15.592;2022-12-18T10:52:19;0.00;;;0.00;;
76536;SDS011;65381;51.254;15.592;2022-12-18T10:54:57;0.00;;;0.00;;
76536;SDS011;65381;51.254;15.592;2022-12-18T10:57:35;0.00;;;0.00;;
76536;SDS011;65381;51.254;15.592;2022-12-18T11:02:54;1.63;;;1.55;;
76536;SDS011;65381;51.254;15.592;2022-12-18T11:07:58;12.45;;;5.30;;
76536;SDS011;65381;51.254;15.592;2022-12-18T11:10:31;3.42;;;1.50;;
76536;SDS011;65381;51.254;15.592;2022-12-18T11:18:16;2.65;;;2.50;;
76536;SDS011;65381;51.254;15.592;2022-12-18T11:21:05;1.27;;;1.27;;
76536;SDS011;65381;51.254;15.592;2022-12-18T11:23:35;3.95;;;1.77;;
76536;SDS011;65381;51.254;15.592;2022-12-18T11:26:10;0.82;;;0.57;;
76536;SDS011;65381;51.254;15.592;2022-12-18T11:29:07;0.00;;;0.00;;
76536;SDS011;65381;51.254;15.592;2022-12-18T11:31:49;2.13;;;1.42;;
76536;SDS011;65381;51.254;15.592;2022-12-18T11:34:24;5.40;;;4.10;;
76536;SDS011;65381;51.254;15.592;2022-12-18T11:36:57;0.68;;;0.68;;
76536;SDS011;65381;51.254;15.592;2022-12-18T11:45:27;5.70;;;2.67;;
76536;SDS011;65381;51.254;15.592;2022-12-18T11:50:33;1.63;;;1.55;;
76536;SDS011;65381;51.254;15.592;2022-12-18T11:53:14;2.67;;;2.55;;
76536;SDS011;65381;51.254;15.592;2022-12-18T12:09:32;6.95;;;5.10;;
76536;SDS011;65381;51.254;15.592;2022-12-18T12:14:55;0.20;;;0.20;;
76536;SDS011;65381;51.254;15.592;2022-12-18T12:17:44;4.75;;;3.97;;
76536;SDS011;65381;51.254;15.592;2022-12-18T12:25:53;3.60;;;3.40;;
76536;SDS011;65381;51.254;15.592;2022-12-18T12:28:48;7.90;;;5.63;;
76536;SDS011;65381;51.254;15.592;2022-12-18T12:31:31;4.40;;;2.88;;
76536;SDS011;65381;51.254;15.592;2022-12-18T12:39:50;5.15;;;3.03;;
76536;SDS011;65381;51.254;15.592;2022-12-18T12:45:27;5.43;;;4.93;;
76536;SDS011;65381;51.254;15.592;2022-12-18T12:48:21;8.48;;;5.75;;
76536;SDS011;65381;51.254;15.592;2022-12-18T12:50:55;7.60;;;7.03;;
76536;SDS011;65381;51.254;15.592;2022-12-18T12:53:28;6.00;;;4.90;;
76536;SDS011;65381;51.254;15.592;2022-12-18T12:56:00;4.07;;;3.78;;
76536;SDS011;65381;51.254;15.592;2022-12-18T12:58:32;9.43;;;4.53;;
76536;SDS011;65381;51.254;15.592;2022-12-18T13:13:23;6.25;;;5.75;;
76536;SDS011;65381;51.254;15.592;2022-12-18T13:16:06;15.55;;;3.03;;
76536;SDS011;65381;51.254;15.592;2022-12-18T13:18:35;3.15;;;2.95;;
76536;SDS011;65381;51.254;15.592;2022-12-18T13:23:52;4.07;;;3.70;;
76536;SDS011;65381;51.254;15.592;2022-12-18T13:28:56;13.23;;;9.07;;
76536;SDS011;65381;51.254;15.592;2022-12-18T13:37:33;4.55;;;4.15;;
76536;SDS011;65381;51.254;15.592;2022-12-18T13:40:00;0.95;;;0.45;;
76536;SDS011;65381;51.254;15.592;2022-12-18T13:48:23;5.72;;;5.32;;
76536;SDS011;65381;51.254;15.592;2022-12-18T13:50:55;6.82;;;4.93;;
76536;SDS011;65381;51.254;15.592;2022-12-18T13:53:30;0.10;;;0.10;;
76536;SDS011;65381;51.254;15.592;2022-12-18T13:56:09;4.85;;;4.40;;
76536;SDS011;65381;51.254;15.592;2022-12-18T13:58:43;1.17;;;1.08;;
76536;SDS011;65381;51.254;15.592;2022-12-18T14:01:21;5.75;;;5.32;;
76536;SDS011;65381;51.254;15.592;2022-12-18T14:03:50;3.80;;;3.50;;
76536;SDS011;65381;51.254;15.592;2022-12-18T14:06:19;7.30;;;3.85;;
76536;SDS011;65381;51.254;15.592;2022-12-18T14:08:49;6.75;;;3.03;;
76536;SDS011;65381;51.254;15.592;2022-12-18T14:11:21;2.03;;;1.77;;
76536;SDS011;65381;51.254;15.592;2022-12-18T14:13:53;1.73;;;1.63;;
76536;SDS011;65381;51.254;15.592;2022-12-18T14:16:20;2.13;;;2.03;;
76536;SDS011;65381;51.254;15.592;2022-12-18T14:18:54;0.60;;;0.60;;
76536;SDS011;65381;51.254;15.592;2022-12-18T14:21:38;0.00;;;0.00;;
76536;SDS011;65381;51.254;15.592;2022-12-18T14:26:49;2.55;;;0.57;;
76536;SDS011;65381;51.254;15.592;2022-12-18T14:29:19;0.00;;;0.00;;
76536;SDS011;65381;51.254;15.592;2022-12-18T14:34:40;0.10;;;0.10;;
76536;SDS011;65381;51.254;15.592;2022-12-18T14:37:12;0.00;;;0.00;;
76536;SDS011;65381;51.254;15.592;2022-12-18T14:39:51;0.00;;;0.00;;
76536;SDS011;65381;51.254;15.592;2022-12-18T14:42:25;0.38;;;0.38;;
76536;SDS011;65381;51.254;15.592;2022-12-18T14:47:50;0.05;;;0.05;;
76536;SDS011;65381;51.254;15.592;2022-12-18T14:50:18;0.00;;;0.00;;
76536;SDS011;65381;51.254;15.592;2022-12-18T14:52:46;0.00;;;0.00;;
76536;SDS011;65381;51.254;15.592;2022-12-18T14:55:15;0.65;;;0.65;;
76536;SDS011;65381;51.254;15.592;2022-12-18T14:57:44;0.00;;;0.00;;
76536;SDS011;65381;51.254;15.592;2022-12-18T15:00:16;0.10;;;0.10;;
76536;SDS011;65381;51.254;15.592;2022-12-18T15:02:48;0.00;;;0.00;;
76536;SDS011;65381;51.254;15.592;2022-12-18T15:05:29;0.00;;;0.00;;
76536;SDS011;65381;51.254;15.592;2022-12-18T15:07:58;0.00;;;0.00;;
76536;SDS011;65381;51.254;15.592;2022-12-18T15:10:28;0.00;;;0.00;;
76536;SDS011;65381;51.254;15.592;2022-12-18T15:23:27;0.00;;;0.00;;
76536;SDS011;65381;51.254;15.592;2022-12-18T15:26:02;0.00;;;0.00;;
76536;SDS011;65381;51.254;15.592;2022-12-18T15:28:36;0.00;;;0.00;;
76536;SDS011;65381;51.254;15.592;2022-12-18T15:31:57;0.03;;;0.03;;
76536;SDS011;65381;51.254;15.592;2022-12-18T15:36:39;0.00;;;0.00;;
76536;SDS011;65381;51.254;15.592;2022-12-18T15:39:09;0.00;;;0.00;;
76536;SDS011;65381;51.254;15.592;2022-12-18T15:41:39;0.00;;;0.00;;
76536;SDS011;65381;51.254;15.592;2022-12-18T15:46:49;0.10;;;0.10;;
76536;SDS011;65381;51.254;15.592;2022-12-18T15:49:17;0.00;;;0.00;;
76536;SDS011;65381;51.254;15.592;2022-12-18T15:51:45;0.00;;;0.00;;
76536;SDS011;65381;51.254;15.592;2022-12-18T15:54:20;0.00;;;0.00;;
76536;SDS011;65381;51.254;15.592;2022-12-18T15:57:10;0.43;;;0.43;;
76536;SDS011;65381;51.254;15.592;2022-12-18T15:59:54;0.00;;;0.00;;
76536;SDS011;65381;51.254;15.592;2022-12-18T16:02:25;0.00;;;0.00;;
76536;SDS011;65381;51.254;15.592;2022-12-18T16:04:57;0.00;;;0.00;;
76536;SDS011;65381;51.254;15.592;2022-12-18T16:07:25;0.60;;;0.57;;
76536;SDS011;65381;51.254;15.592;2022-12-18T16:09:56;0.98;;;0.98;;
76536;SDS011;65381;51.254;15.592;2022-12-18T16:12:28;0.00;;;0.00;;
76536;SDS011;65381;51.254;15.592;2022-12-18T16:14:56;0.20;;;0.20;;
76536;SDS011;65381;51.254;15.592;2022-12-18T16:17:25;0.00;;;0.00;;
76536;SDS011;65381;51.254;15.592;2022-12-18T16:19:53;0.00;;;0.00;;
76536;SDS011;65381;51.254;15.592;2022-12-18T16:22:24;0.00;;;0.00;;
76536;SDS011;65381;51.254;15.592;2022-12-18T16:24:55;0.00;;;0.00;;
76536;SDS011;65381;51.254;15.592;2022-12-18T16:27:24;0.00;;;0.00;;
76536;SDS011;65381;51.254;15.592;2022-12-18T16:29:52;0.60;;;0.60;;
76536;SDS011;65381;51.254;15.592;2022-12-18T16:32:20;0.00;;;0.00;;
76536;SDS011;65381;51.254;15.592;2022-12-18T16:34:50;0.00;;;0.00;;
76536;SDS011;65381;51.254;15.592;2022-12-18T16:37:18;0.00;;;0.00;;
76536;SDS011;65381;51.254;15.592;2022-12-18T16:39:46;0.00;;;0.00;;
76536;SDS011;65381;51.254;15.592;2022-12-18T16:42:14;0.00;;;0.00;;
76536;SDS011;65381;51.254;15.592;2022-12-18T16:44:48;0.60;;;0.43;;
76536;SDS011;65381;51.254;15.592;2022-12-18T16:47:18;0.00;;;0.00;;
76536;SDS011;65381;51.254;15.592;2022-12-18T16:49:47;0.00;;;0.00;;
76536;SDS011;65381;51.254;15.592;2022-12-18T16:52:18;0.00;;;0.00;;
76536;SDS011;65381;51.254;15.592;2022-12-18T16:54:47;0.00;;;0.00;;
76536;SDS011;65381;51.254;15.592;2022-12-18T16:57:17;0.10;;;0.10;;
76536;SDS011;65381;51.254;15.592;2022-12-18T16:59:47;0.00;;;0.00;;
76536;SDS011;65381;51.254;15.592;2022-12-18T17:02:19;0.00;;;0.00;;
76536;SDS011;65381;51.254;15.592;2022-12-18T17:04:52;0.00;;;0.00;;
76536;SDS011;65381;51.254;15.592;2022-12-18T17:07:22;0.00;;;0.00;;
76536;SDS011;65381;51.254;15.592;2022-12-18T17:09:51;0.00;;;0.00;;
76536;SDS011;65381;51.254;15.592;2022-12-18T17:12:20;0.32;;;0.32;;
76536;SDS011;65381;51.254;15.592;2022-12-18T17:14:47;1.52;;;0.63;;
76536;SDS011;65381;51.254;15.592;2022-12-18T17:17:16;5.55;;;5.05;;
76536;SDS011;65381;51.254;15.592;2022-12-18T17:19:48;8.27;;;7.30;;
76536;SDS011;65381;51.254;15.592;2022-12-18T17:22:16;2.95;;;2.78;;
76536;SDS011;65381;51.254;15.592;2022-12-18T17:24:45;16.65;;;8.10;;
76536;SDS011;65381;51.254;15.592;2022-12-18T17:27:13;15.88;;;6.65;;
76536;SDS011;65381;51.254;15.592;2022-12-18T17:29:44;6.35;;;2.92;;
76536;SDS011;65381;51.254;15.592;2022-12-18T17:32:14;0.73;;;0.73;;
76536;SDS011;65381;51.254;15.592;2022-12-18T17:34:42;0.00;;;0.00;;
76536;SDS011;65381;51.254;15.592;2022-12-18T17:37:10;0.63;;;0.63;;
76536;SDS011;65381;51.254;15.592;2022-12-18T17:39:38;2.38;;;2.28;;
76536;SDS011;65381;51.254;15.592;2022-12-18T17:42:06;2.60;;;2.22;;